sensor_id;sensor_type;location;lat;lon;timestamp;temperature;humidity
42833;DHT22;64089;51.478;5.692;2023-11-21T00:01:57;8.30;99.90
42833;DHT22;64089;51.478;5.692;2023-11-21T00:04:23;8.30;99.90
42833;DHT22;64089;51.478;5.692;2023-11-21T00:06:50;8.40;99.90
42833;DHT22;64089;51.478;5.692;2023-11-21T00:09:16;8.30;99.90
42833;DHT22;64089;51.478;5.692;2023-11-21T00:11:43;8.40;99.90
42833;DHT22;64089;51.478;5.692;2023-11-21T00:14:10;8.30;99.90
42833;DHT22;64089;51.478;5.692;2023-11-21T00:16:36;8.40;99.90
42833;DHT22;64089;51.478;5.692;2023-11-21T00:19:01;8.40;99.90
42833;DHT22;64089;51.478;5.692;2023-11-21T00:21:27;8.40;99.90
42833;DHT22;64089;51.478;5.692;2023-11-21T00:23:52;8.40;99.90
42833;DHT22;64089;51.478;5.692;2023-11-21T00:26:18;8.40;99.90
42833;DHT22;64089;51.478;5.692;2023-11-21T00:28:44;8.40;99.90
42833;DHT22;64089;51.478;5.692;2023-11-21T00:31:09;8.50;99.90
42833;DHT22;64089;51.478;5.692;2023-11-21T00:33:35;8.50;99.90
42833;DHT22;64089;51.478;5.692;2023-11-21T00:36:00;8.50;99.90
42833;DHT22;64089;51.478;5.692;2023-11-21T00:38:26;8.50;99.90
42833;DHT22;64089;51.478;5.692;2023-11-21T00:40:53;8.50;99.90
42833;DHT22;64089;51.478;5.692;2023-11-21T00:43:24;8.50;99.90
42833;DHT22;64089;51.478;5.692;2023-11-21T00:45:49;8.40;99.90
42833;DHT22;64089;51.478;5.692;2023-11-21T00:48:15;8.40;99.90
42833;DHT22;64089;51.478;5.692;2023-11-21T00:50:41;8.30;99.90
42833;DHT22;64089;51.478;5.692;2023-11-21T00:53:06;8.30;99.90
42833;DHT22;64089;51.478;5.692;2023-11-21T00:55:33;8.30;99.90
42833;DHT22;64089;51.478;5.692;2023-11-21T00:57:59;8.20;99.90
42833;DHT22;64089;51.478;5.692;2023-11-21T01:00:25;8.10;99.90
42833;DHT22;64089;51.478;5.692;2023-11-21T01:02:51;8.10;99.90
42833;DHT22;64089;51.478;5.692;2023-11-21T01:05:17;8.00;99.90
42833;DHT22;64089;51.478;5.692;2023-11-21T01:07:43;7.90;99.90
42833;DHT22;64089;51.478;5.692;2023-11-21T01:10:08;7.80;99.90
42833;DHT22;64089;51.478;5.692;2023-11-21T01:12:36;7.80;99.90
42833;DHT22;64089;51.478;5.692;2023-11-21T01:15:06;7.70;99.90
42833;DHT22;64089;51.478;5.692;2023-11-21T01:17:37;7.70;99.90
42833;DHT22;64089;51.478;5.692;2023-11-21T01:20:04;7.70;99.90
42833;DHT22;64089;51.478;5.692;2023-11-21T01:22:36;7.60;99.90
42833;DHT22;64089;51.478;5.692;2023-11-21T01:25:02;7.60;99.90
42833;DHT22;64089;51.478;5.692;2023-11-21T01:27:33;7.70;99.90
42833;DHT22;64089;51.478;5.692;2023-11-21T01:29:59;7.60;99.90
42833;DHT22;64089;51.478;5.692;2023-11-21T01:32:25;7.60;99.90
42833;DHT22;64089;51.478;5.692;2023-11-21T01:34:50;7.60;99.90
42833;DHT22;64089;51.478;5.692;2023-11-21T01:37:16;7.60;99.90
42833;DHT22;64089;51.478;5.692;2023-11-21T01:39:43;7.60;99.90
42833;DHT22;64089;51.478;5.692;2023-11-21T01:42:09;7.60;99.90
42833;DHT22;64089;51.478;5.692;2023-11-21T01:44:35;7.60;99.90
42833;DHT22;64089;51.478;5.692;2023-11-21T01:47:01;7.70;99.90
42833;DHT22;64089;51.478;5.692;2023-11-21T01:49:32;7.70;99.90
42833;DHT22;64089;51.478;5.692;2023-11-21T01:51:59;7.70;99.90
42833;DHT22;64089;51.478;5.692;2023-11-21T01:54:25;7.70;99.90
42833;DHT22;64089;51.478;5.692;2023-11-21T01:56:51;7.80;99.90
42833;DHT22;64089;51.478;5.692;2023-11-21T01:59:21;7.80;99.90
42833;DHT22;64089;51.478;5.692;2023-11-21T02:01:47;7.80;99.90
42833;DHT22;64089;51.478;5.692;2023-11-21T02:04:14;7.90;99.90
42833;DHT22;64089;51.478;5.692;2023-11-21T02:06:39;7.90;99.90
42833;DHT22;64089;51.478;5.692;2023-11-21T02:09:05;7.90;99.90
42833;DHT22;64089;51.478;5.692;2023-11-21T02:11:31;7.90;99.90
42833;DHT22;64089;51.478;5.692;2023-11-21T02:14:00;8.00;99.90
42833;DHT22;64089;51.478;5.692;2023-11-21T02:16:26;7.90;99.90
42833;DHT22;64089;51.478;5.692;2023-11-21T02:18:52;7.90;99.90
42833;DHT22;64089;51.478;5.692;2023-11-21T02:21:18;8.00;99.90
42833;DHT22;64089;51.478;5.692;2023-11-21T02:23:44;8.00;99.90
42833;DHT22;64089;51.478;5.692;2023-11-21T02:26:12;8.00;99.90
42833;DHT22;64089;51.478;5.692;2023-11-21T02:28:39;8.10;99.90
42833;DHT22;64089;51.478;5.692;2023-11-21T02:31:05;8.10;99.90
42833;DHT22;64089;51.478;5.692;2023-11-21T02:33:33;8.10;99.90
42833;DHT22;64089;51.478;5.692;2023-11-21T02:36:00;8.10;99.90
42833;DHT22;64089;51.478;5.692;2023-11-21T02:38:25;8.20;99.90
42833;DHT22;64089;51.478;5.692;2023-11-21T02:40:51;8.20;99.90
42833;DHT22;64089;51.478;5.692;2023-11-21T02:43:17;8.20;99.90
42833;DHT22;64089;51.478;5.692;2023-11-21T02:45:42;8.20;99.90
42833;DHT22;64089;51.478;5.692;2023-11-21T02:48:08;8.20;99.90
42833;DHT22;64089;51.478;5.692;2023-11-21T02:50:34;8.20;99.90
42833;DHT22;64089;51.478;5.692;2023-11-21T02:53:00;8.20;99.90
42833;DHT22;64089;51.478;5.692;2023-11-21T02:55:27;8.30;99.90
42833;DHT22;64089;51.478;5.692;2023-11-21T02:57:53;8.20;99.90
42833;DHT22;64089;51.478;5.692;2023-11-21T03:00:21;8.20;99.90
42833;DHT22;64089;51.478;5.692;2023-11-21T03:02:49;8.20;99.90
42833;DHT22;64089;51.478;5.692;2023-11-21T03:05:15;8.20;99.90
42833;DHT22;64089;51.478;5.692;2023-11-21T03:07:41;8.20;99.90
42833;DHT22;64089;51.478;5.692;2023-11-21T03:10:08;8.20;99.90
42833;DHT22;64089;51.478;5.692;2023-11-21T03:12:37;8.20;99.90
42833;DHT22;64089;51.478;5.692;2023-11-21T03:15:04;8.20;99.90
42833;DHT22;64089;51.478;5.692;2023-11-21T03:17:31;8.10;99.90
42833;DHT22;64089;51.478;5.692;2023-11-21T03:19:56;8.20;99.90
42833;DHT22;64089;51.478;5.692;2023-11-21T03:22:22;8.20;99.90
42833;DHT22;64089;51.478;5.692;2023-11-21T03:24:48;8.20;99.90
42833;DHT22;64089;51.478;5.692;2023-11-21T03:27:14;8.20;99.90
42833;DHT22;64089;51.478;5.692;2023-11-21T03:29:43;8.20;99.90
42833;DHT22;64089;51.478;5.692;2023-11-21T03:32:09;8.20;99.90
42833;DHT22;64089;51.478;5.692;2023-11-21T03:34:34;8.20;99.90
42833;DHT22;64089;51.478;5.692;2023-11-21T03:37:00;8.10;99.90
42833;DHT22;64089;51.478;5.692;2023-11-21T03:39:25;8.10;99.90
42833;DHT22;64089;51.478;5.692;2023-11-21T03:41:51;8.10;99.90
42833;DHT22;64089;51.478;5.692;2023-11-21T03:44:17;8.10;99.90
42833;DHT22;64089;51.478;5.692;2023-11-21T03:46:43;8.00;99.90
42833;DHT22;64089;51.478;5.692;2023-11-21T03:49:09;8.00;99.90
42833;DHT22;64089;51.478;5.692;2023-11-21T03:51:36;8.00;99.90
42833;DHT22;64089;51.478;5.692;2023-11-21T03:54:02;8.10;99.90
42833;DHT22;64089;51.478;5.692;2023-11-21T03:56:28;8.10;99.90
42833;DHT22;64089;51.478;5.692;2023-11-21T03:58:54;8.10;99.90
42833;DHT22;64089;51.478;5.692;2023-11-21T04:01:21;8.10;99.90
42833;DHT22;64089;51.478;5.692;2023-11-21T04:03:47;8.10;99.90
42833;DHT22;64089;51.478;5.692;2023-11-21T04:06:13;8.10;99.90
42833;DHT22;64089;51.478;5.692;2023-11-21T04:08:38;8.10;99.90
42833;DHT22;64089;51.478;5.692;2023-11-21T04:11:04;8.10;99.90
42833;DHT22;64089;51.478;5.692;2023-11-21T04:13:29;8.10;99.90
42833;DHT22;64089;51.478;5.692;2023-11-21T04:15:56;8.10;99.90
42833;DHT22;64089;51.478;5.692;2023-11-21T04:18:22;8.10;99.90
42833;DHT22;64089;51.478;5.692;2023-11-21T04:20:49;8.10;99.90
42833;DHT22;64089;51.478;5.692;2023-11-21T04:23:16;8.10;99.90
42833;DHT22;64089;51.478;5.692;2023-11-21T04:25:41;7.90;99.90
42833;DHT22;64089;51.478;5.692;2023-11-21T04:28:08;8.00;99.90
42833;DHT22;64089;51.478;5.692;2023-11-21T04:30:33;7.90;99.90
42833;DHT22;64089;51.478;5.692;2023-11-21T04:32:59;7.90;99.90
42833;DHT22;64089;51.478;5.692;2023-11-21T04:35:24;7.90;99.90
42833;DHT22;64089;51.478;5.692;2023-11-21T04:37:50;7.90;99.90
42833;DHT22;64089;51.478;5.692;2023-11-21T04:40:16;7.90;99.90
42833;DHT22;64089;51.478;5.692;2023-11-21T04:42:42;7.90;99.90
42833;DHT22;64089;51.478;5.692;2023-11-21T04:45:08;8.00;99.90
42833;DHT22;64089;51.478;5.692;2023-11-21T04:47:35;8.00;99.90
42833;DHT22;64089;51.478;5.692;2023-11-21T04:50:02;8.00;99.90
42833;DHT22;64089;51.478;5.692;2023-11-21T04:52:28;7.90;99.90
42833;DHT22;64089;51.478;5.692;2023-11-21T04:54:54;7.90;99.90
42833;DHT22;64089;51.478;5.692;2023-11-21T04:57:20;8.00;99.90
42833;DHT22;64089;51.478;5.692;2023-11-21T04:59:48;8.00;99.90
42833;DHT22;64089;51.478;5.692;2023-11-21T05:02:13;8.00;99.90
42833;DHT22;64089;51.478;5.692;2023-11-21T05:04:39;8.00;99.90
42833;DHT22;64089;51.478;5.692;2023-11-21T05:07:05;8.00;99.90
42833;DHT22;64089;51.478;5.692;2023-11-21T05:09:33;8.00;99.90
42833;DHT22;64089;51.478;5.692;2023-11-21T05:11:59;8.00;99.90
42833;DHT22;64089;51.478;5.692;2023-11-21T05:14:25;8.00;99.90
42833;DHT22;64089;51.478;5.692;2023-11-21T05:16:51;8.00;99.90
42833;DHT22;64089;51.478;5.692;2023-11-21T05:19:17;8.00;99.90
42833;DHT22;64089;51.478;5.692;2023-11-21T05:21:43;8.00;99.90
42833;DHT22;64089;51.478;5.692;2023-11-21T05:24:08;8.00;99.90
42833;DHT22;64089;51.478;5.692;2023-11-21T05:26:35;8.00;99.90
42833;DHT22;64089;51.478;5.692;2023-11-21T05:29:00;8.00;99.90
42833;DHT22;64089;51.478;5.692;2023-11-21T05:31:26;8.00;99.90
42833;DHT22;64089;51.478;5.692;2023-11-21T05:33:52;8.00;99.90
42833;DHT22;64089;51.478;5.692;2023-11-21T05:36:18;8.00;99.90
42833;DHT22;64089;51.478;5.692;2023-11-21T05:38:44;8.00;99.90
42833;DHT22;64089;51.478;5.692;2023-11-21T05:41:09;8.00;99.90
42833;DHT22;64089;51.478;5.692;2023-11-21T05:43:39;8.10;99.90
42833;DHT22;64089;51.478;5.692;2023-11-21T05:46:05;8.00;99.90
42833;DHT22;64089;51.478;5.692;2023-11-21T05:48:32;8.10;99.90
42833;DHT22;64089;51.478;5.692;2023-11-21T05:50:58;8.10;99.90
42833;DHT22;64089;51.478;5.692;2023-11-21T05:53:24;8.10;99.90
42833;DHT22;64089;51.478;5.692;2023-11-21T05:55:50;8.10;99.90
42833;DHT22;64089;51.478;5.692;2023-11-21T05:58:16;8.00;99.90
42833;DHT22;64089;51.478;5.692;2023-11-21T06:00:41;8.00;99.90
42833;DHT22;64089;51.478;5.692;2023-11-21T06:03:07;8.00;99.90
42833;DHT22;64089;51.478;5.692;2023-11-21T06:05:33;8.00;99.90
42833;DHT22;64089;51.478;5.692;2023-11-21T06:07:59;8.00;99.90
42833;DHT22;64089;51.478;5.692;2023-11-21T06:10:26;8.00;99.90
42833;DHT22;64089;51.478;5.692;2023-11-21T06:12:52;8.00;99.90
42833;DHT22;64089;51.478;5.692;2023-11-21T06:15:17;7.90;99.90
42833;DHT22;64089;51.478;5.692;2023-11-21T06:17:46;7.90;99.90
42833;DHT22;64089;51.478;5.692;2023-11-21T06:20:15;7.80;99.90
42833;DHT22;64089;51.478;5.692;2023-11-21T06:22:42;7.80;99.90
42833;DHT22;64089;51.478;5.692;2023-11-21T06:25:09;7.80;99.90
42833;DHT22;64089;51.478;5.692;2023-11-21T06:27:39;7.80;99.90
42833;DHT22;64089;51.478;5.692;2023-11-21T06:30:06;7.90;99.90
42833;DHT22;64089;51.478;5.692;2023-11-21T06:32:34;7.90;99.90
42833;DHT22;64089;51.478;5.692;2023-11-21T06:35:00;7.90;99.90
42833;DHT22;64089;51.478;5.692;2023-11-21T06:37:26;8.00;99.90
42833;DHT22;64089;51.478;5.692;2023-11-21T06:39:53;8.00;99.90
42833;DHT22;64089;51.478;5.692;2023-11-21T06:42:19;8.00;99.90
42833;DHT22;64089;51.478;5.692;2023-11-21T06:44:48;8.10;99.90
42833;DHT22;64089;51.478;5.692;2023-11-21T06:47:22;8.10;99.90
42833;DHT22;64089;51.478;5.692;2023-11-21T06:49:50;8.10;99.90
42833;DHT22;64089;51.478;5.692;2023-11-21T06:52:16;8.10;99.90
42833;DHT22;64089;51.478;5.692;2023-11-21T06:54:41;8.10;99.90
42833;DHT22;64089;51.478;5.692;2023-11-21T06:57:07;8.10;99.90
42833;DHT22;64089;51.478;5.692;2023-11-21T06:59:33;8.10;99.90
42833;DHT22;64089;51.478;5.692;2023-11-21T07:01:59;8.20;99.90
42833;DHT22;64089;51.478;5.692;2023-11-21T07:04:25;8.20;99.90
42833;DHT22;64089;51.478;5.692;2023-11-21T07:06:54;8.20;99.90
42833;DHT22;64089;51.478;5.692;2023-11-21T07:09:20;8.20;99.90
42833;DHT22;64089;51.478;5.692;2023-11-21T07:11:48;8.20;99.90
42833;DHT22;64089;51.478;5.692;2023-11-21T07:14:14;8.20;99.90
42833;DHT22;64089;51.478;5.692;2023-11-21T07:16:39;8.20;99.90
42833;DHT22;64089;51.478;5.692;2023-11-21T07:19:08;8.20;99.90
42833;DHT22;64089;51.478;5.692;2023-11-21T07:21:34;8.20;99.90
42833;DHT22;64089;51.478;5.692;2023-11-21T07:24:01;8.20;99.90
42833;DHT22;64089;51.478;5.692;2023-11-21T07:26:27;8.30;99.90
42833;DHT22;64089;51.478;5.692;2023-11-21T07:28:54;8.30;99.90
42833;DHT22;64089;51.478;5.692;2023-11-21T07:31:20;8.30;99.90
42833;DHT22;64089;51.478;5.692;2023-11-21T07:33:47;8.30;99.90
42833;DHT22;64089;51.478;5.692;2023-11-21T07:36:14;8.30;99.90
42833;DHT22;64089;51.478;5.692;2023-11-21T07:38:39;8.30;99.90
42833;DHT22;64089;51.478;5.692;2023-11-21T07:41:09;8.30;99.90
42833;DHT22;64089;51.478;5.692;2023-11-21T07:43:35;8.40;99.90
42833;DHT22;64089;51.478;5.692;2023-11-21T07:46:02;8.40;99.90
42833;DHT22;64089;51.478;5.692;2023-11-21T07:48:31;8.40;99.90
42833;DHT22;64089;51.478;5.692;2023-11-21T07:50:57;8.40;99.90
42833;DHT22;64089;51.478;5.692;2023-11-21T07:53:26;8.40;99.90
42833;DHT22;64089;51.478;5.692;2023-11-21T07:55:55;8.40;99.90
42833;DHT22;64089;51.478;5.692;2023-11-21T07:58:21;8.40;99.90
42833;DHT22;64089;51.478;5.692;2023-11-21T08:00:47;8.50;99.90
42833;DHT22;64089;51.478;5.692;2023-11-21T08:03:16;8.50;99.90
42833;DHT22;64089;51.478;5.692;2023-11-21T08:05:42;8.50;99.90
42833;DHT22;64089;51.478;5.692;2023-11-21T08:08:08;8.50;99.90
42833;DHT22;64089;51.478;5.692;2023-11-21T08:10:34;8.50;99.90
42833;DHT22;64089;51.478;5.692;2023-11-21T08:13:01;8.50;99.90
42833;DHT22;64089;51.478;5.692;2023-11-21T08:15:27;8.50;99.90
42833;DHT22;64089;51.478;5.692;2023-11-21T08:17:52;8.60;99.90
42833;DHT22;64089;51.478;5.692;2023-11-21T08:20:18;8.60;99.90
42833;DHT22;64089;51.478;5.692;2023-11-21T08:22:44;8.60;99.90
42833;DHT22;64089;51.478;5.692;2023-11-21T08:25:10;8.60;99.90
42833;DHT22;64089;51.478;5.692;2023-11-21T08:27:36;8.60;99.90
42833;DHT22;64089;51.478;5.692;2023-11-21T08:30:05;8.60;99.90
42833;DHT22;64089;51.478;5.692;2023-11-21T08:32:32;8.60;99.90
42833;DHT22;64089;51.478;5.692;2023-11-21T08:34:59;8.70;99.90
42833;DHT22;64089;51.478;5.692;2023-11-21T08:37:25;8.70;99.90
42833;DHT22;64089;51.478;5.692;2023-11-21T08:39:53;8.80;99.90
42833;DHT22;64089;51.478;5.692;2023-11-21T08:42:19;8.80;99.90
42833;DHT22;64089;51.478;5.692;2023-11-21T08:44:44;9.00;99.90
42833;DHT22;64089;51.478;5.692;2023-11-21T08:47:11;9.00;99.90
42833;DHT22;64089;51.478;5.692;2023-11-21T08:49:37;9.10;99.90
42833;DHT22;64089;51.478;5.692;2023-11-21T08:52:03;9.10;99.90
42833;DHT22;64089;51.478;5.692;2023-11-21T08:54:31;9.10;99.90
42833;DHT22;64089;51.478;5.692;2023-11-21T08:56:56;9.10;99.90
42833;DHT22;64089;51.478;5.692;2023-11-21T08:59:24;9.10;99.90
42833;DHT22;64089;51.478;5.692;2023-11-21T09:01:49;9.10;99.90
42833;DHT22;64089;51.478;5.692;2023-11-21T09:04:15;9.10;99.90
42833;DHT22;64089;51.478;5.692;2023-11-21T09:06:41;9.10;99.90
42833;DHT22;64089;51.478;5.692;2023-11-21T09:09:06;9.10;99.90
42833;DHT22;64089;51.478;5.692;2023-11-21T09:11:33;9.10;99.90
42833;DHT22;64089;51.478;5.692;2023-11-21T09:14:02;9.10;99.90
42833;DHT22;64089;51.478;5.692;2023-11-21T09:16:31;9.20;99.90
42833;DHT22;64089;51.478;5.692;2023-11-21T09:18:57;9.10;99.90
42833;DHT22;64089;51.478;5.692;2023-11-21T09:21:22;9.10;99.90
42833;DHT22;64089;51.478;5.692;2023-11-21T09:23:49;9.10;99.90
42833;DHT22;64089;51.478;5.692;2023-11-21T09:26:15;9.10;99.90
42833;DHT22;64089;51.478;5.692;2023-11-21T09:28:43;9.20;99.90
42833;DHT22;64089;51.478;5.692;2023-11-21T09:31:12;9.20;99.90
42833;DHT22;64089;51.478;5.692;2023-11-21T09:33:37;9.30;99.90
42833;DHT22;64089;51.478;5.692;2023-11-21T09:36:04;9.30;99.90
42833;DHT22;64089;51.478;5.692;2023-11-21T09:38:30;9.30;99.90
42833;DHT22;64089;51.478;5.692;2023-11-21T09:40:56;9.40;99.90
42833;DHT22;64089;51.478;5.692;2023-11-21T09:43:25;9.40;99.90
42833;DHT22;64089;51.478;5.692;2023-11-21T09:45:59;9.40;99.90
42833;DHT22;64089;51.478;5.692;2023-11-21T09:48:26;9.40;99.90
42833;DHT22;64089;51.478;5.692;2023-11-21T09:50:53;9.40;99.90
42833;DHT22;64089;51.478;5.692;2023-11-21T09:53:20;9.50;99.90
42833;DHT22;64089;51.478;5.692;2023-11-21T09:55:49;9.50;99.90
42833;DHT22;64089;51.478;5.692;2023-11-21T09:58:16;9.60;99.90
42833;DHT22;64089;51.478;5.692;2023-11-21T10:00:53;9.70;99.90
42833;DHT22;64089;51.478;5.692;2023-11-21T10:03:19;9.70;99.90
42833;DHT22;64089;51.478;5.692;2023-11-21T10:05:45;9.80;99.90
42833;DHT22;64089;51.478;5.692;2023-11-21T10:08:12;9.90;99.90
42833;DHT22;64089;51.478;5.692;2023-11-21T10:10:44;9.80;99.90
42833;DHT22;64089;51.478;5.692;2023-11-21T10:13:14;9.80;99.90
42833;DHT22;64089;51.478;5.692;2023-11-21T10:15:42;9.80;99.90
42833;DHT22;64089;51.478;5.692;2023-11-21T10:18:14;9.80;99.90
42833;DHT22;64089;51.478;5.692;2023-11-21T10:20:41;9.70;99.90
42833;DHT22;64089;51.478;5.692;2023-11-21T10:23:07;9.70;99.90
42833;DHT22;64089;51.478;5.692;2023-11-21T10:25:37;9.70;99.90
42833;DHT22;64089;51.478;5.692;2023-11-21T10:28:04;9.80;99.90
42833;DHT22;64089;51.478;5.692;2023-11-21T10:30:36;9.90;99.90
42833;DHT22;64089;51.478;5.692;2023-11-21T10:33:07;10.00;99.90
42833;DHT22;64089;51.478;5.692;2023-11-21T10:35:48;10.10;99.90
42833;DHT22;64089;51.478;5.692;2023-11-21T10:38:20;10.20;99.90
42833;DHT22;64089;51.478;5.692;2023-11-21T10:40:50;10.30;99.90
42833;DHT22;64089;51.478;5.692;2023-11-21T10:43:17;10.30;99.90
42833;DHT22;64089;51.478;5.692;2023-11-21T10:45:43;10.40;99.90
42833;DHT22;64089;51.478;5.692;2023-11-21T10:48:13;10.50;99.90
42833;DHT22;64089;51.478;5.692;2023-11-21T10:50:43;10.40;99.90
42833;DHT22;64089;51.478;5.692;2023-11-21T10:53:09;10.40;99.90
42833;DHT22;64089;51.478;5.692;2023-11-21T10:55:37;10.30;99.90
42833;DHT22;64089;51.478;5.692;2023-11-21T10:58:04;10.30;99.90
42833;DHT22;64089;51.478;5.692;2023-11-21T11:00:31;10.50;99.90
42833;DHT22;64089;51.478;5.692;2023-11-21T11:02:57;10.50;99.90
42833;DHT22;64089;51.478;5.692;2023-11-21T11:05:25;10.50;99.90
42833;DHT22;64089;51.478;5.692;2023-11-21T11:07:59;10.60;99.90
42833;DHT22;64089;51.478;5.692;2023-11-21T11:10:28;10.50;99.90
42833;DHT22;64089;51.478;5.692;2023-11-21T11:12:58;10.50;99.90
42833;DHT22;64089;51.478;5.692;2023-11-21T11:15:25;10.40;99.90
42833;DHT22;64089;51.478;5.692;2023-11-21T11:17:50;10.50;99.90
42833;DHT22;64089;51.478;5.692;2023-11-21T11:20:18;10.50;99.90
42833;DHT22;64089;51.478;5.692;2023-11-21T11:26:20;10.50;99.90
42833;DHT22;64089;51.478;5.692;2023-11-21T11:29:08;10.60;99.90
42833;DHT22;64089;51.478;5.692;2023-11-21T11:32:00;10.70;99.90
42833;DHT22;64089;51.478;5.692;2023-11-21T11:34:33;10.80;99.90
42833;DHT22;64089;51.478;5.692;2023-11-21T11:37:02;10.70;99.90
42833;DHT22;64089;51.478;5.692;2023-11-21T11:41:58;10.70;99.90
42833;DHT22;64089;51.478;5.692;2023-11-21T11:47:28;10.70;99.90
42833;DHT22;64089;51.478;5.692;2023-11-21T11:50:24;10.60;99.90
42833;DHT22;64089;51.478;5.692;2023-11-21T11:52:53;10.60;99.90
42833;DHT22;64089;51.478;5.692;2023-11-21T11:55:24;10.60;99.90
42833;DHT22;64089;51.478;5.692;2023-11-21T11:57:52;10.60;99.90
42833;DHT22;64089;51.478;5.692;2023-11-21T12:00:22;10.60;99.90
42833;DHT22;64089;51.478;5.692;2023-11-21T12:02:58;10.60;99.90
42833;DHT22;64089;51.478;5.692;2023-11-21T12:05:26;10.70;99.90
42833;DHT22;64089;51.478;5.692;2023-11-21T12:07:55;10.80;99.90
42833;DHT22;64089;51.478;5.692;2023-11-21T12:10:27;10.90;99.90
42833;DHT22;64089;51.478;5.692;2023-11-21T12:13:03;10.90;99.90
42833;DHT22;64089;51.478;5.692;2023-11-21T12:15:30;10.90;99.90
42833;DHT22;64089;51.478;5.692;2023-11-21T12:17:57;10.80;99.90
42833;DHT22;64089;51.478;5.692;2023-11-21T12:20:27;10.80;99.90
42833;DHT22;64089;51.478;5.692;2023-11-21T12:22:54;10.70;99.90
42833;DHT22;64089;51.478;5.692;2023-11-21T12:25:22;10.70;99.90
42833;DHT22;64089;51.478;5.692;2023-11-21T12:27:50;10.60;99.90
42833;DHT22;64089;51.478;5.692;2023-11-21T12:30:17;10.60;99.90
42833;DHT22;64089;51.478;5.692;2023-11-21T12:32:45;10.60;99.90
42833;DHT22;64089;51.478;5.692;2023-11-21T12:35:13;10.60;99.90
42833;DHT22;64089;51.478;5.692;2023-11-21T12:37:40;10.60;99.90
42833;DHT22;64089;51.478;5.692;2023-11-21T12:40:10;10.60;99.90
42833;DHT22;64089;51.478;5.692;2023-11-21T12:42:44;10.60;99.90
42833;DHT22;64089;51.478;5.692;2023-11-21T12:45:18;10.60;99.90
42833;DHT22;64089;51.478;5.692;2023-11-21T12:47:49;10.60;99.90
42833;DHT22;64089;51.478;5.692;2023-11-21T12:50:22;10.60;99.90
42833;DHT22;64089;51.478;5.692;2023-11-21T12:52:57;10.60;99.90
42833;DHT22;64089;51.478;5.692;2023-11-21T12:55:24;10.60;99.90
42833;DHT22;64089;51.478;5.692;2023-11-21T12:57:53;10.70;99.90
42833;DHT22;64089;51.478;5.692;2023-11-21T13:00:38;10.70;99.90
42833;DHT22;64089;51.478;5.692;2023-11-21T13:03:06;10.70;99.90
42833;DHT22;64089;51.478;5.692;2023-11-21T13:05:36;10.60;99.90
42833;DHT22;64089;51.478;5.692;2023-11-21T13:08:10;10.70;99.90
42833;DHT22;64089;51.478;5.692;2023-11-21T13:10:43;10.70;99.90
42833;DHT22;64089;51.478;5.692;2023-11-21T13:13:10;10.80;99.90
42833;DHT22;64089;51.478;5.692;2023-11-21T13:15:50;10.80;99.90
42833;DHT22;64089;51.478;5.692;2023-11-21T13:18:16;10.70;99.90
42833;DHT22;64089;51.478;5.692;2023-11-21T13:20:43;10.80;99.90
42833;DHT22;64089;51.478;5.692;2023-11-21T13:23:10;10.80;99.90
42833;DHT22;64089;51.478;5.692;2023-11-21T13:25:38;10.80;99.90
42833;DHT22;64089;51.478;5.692;2023-11-21T13:28:06;10.80;99.90
42833;DHT22;64089;51.478;5.692;2023-11-21T13:30:32;10.80;99.90
42833;DHT22;64089;51.478;5.692;2023-11-21T13:35:31;10.80;99.90
42833;DHT22;64089;51.478;5.692;2023-11-21T13:38:07;10.80;99.90
42833;DHT22;64089;51.478;5.692;2023-11-21T13:40:34;10.80;99.90
42833;DHT22;64089;51.478;5.692;2023-11-21T13:43:08;10.80;99.90
42833;DHT22;64089;51.478;5.692;2023-11-21T13:45:39;10.80;99.90
42833;DHT22;64089;51.478;5.692;2023-11-21T13:48:06;10.80;99.90
42833;DHT22;64089;51.478;5.692;2023-11-21T13:50:36;11.00;99.90
42833;DHT22;64089;51.478;5.692;2023-11-21T13:53:03;10.80;99.90
42833;DHT22;64089;51.478;5.692;2023-11-21T13:55:44;10.70;99.90
42833;DHT22;64089;51.478;5.692;2023-11-21T13:58:11;10.60;99.90
42833;DHT22;64089;51.478;5.692;2023-11-21T14:00:42;10.60;99.90
42833;DHT22;64089;51.478;5.692;2023-11-21T14:03:15;10.60;99.90
42833;DHT22;64089;51.478;5.692;2023-11-21T14:05:48;10.60;99.90
42833;DHT22;64089;51.478;5.692;2023-11-21T14:08:21;10.60;99.90
42833;DHT22;64089;51.478;5.692;2023-11-21T14:10:49;10.60;99.90
42833;DHT22;64089;51.478;5.692;2023-11-21T14:13:17;10.60;99.90
42833;DHT22;64089;51.478;5.692;2023-11-21T14:15:43;10.60;99.90
42833;DHT22;64089;51.478;5.692;2023-11-21T14:18:11;10.60;99.90
42833;DHT22;64089;51.478;5.692;2023-11-21T14:20:39;10.60;99.90
42833;DHT22;64089;51.478;5.692;2023-11-21T14:23:08;10.60;99.90
42833;DHT22;64089;51.478;5.692;2023-11-21T14:25:36;10.60;99.90
42833;DHT22;64089;51.478;5.692;2023-11-21T14:28:05;10.70;99.90
42833;DHT22;64089;51.478;5.692;2023-11-21T14:30:32;10.60;99.90
42833;DHT22;64089;51.478;5.692;2023-11-21T14:33:01;10.60;99.90
42833;DHT22;64089;51.478;5.692;2023-11-21T14:35:27;10.70;99.90
42833;DHT22;64089;51.478;5.692;2023-11-21T14:37:55;10.80;99.90
42833;DHT22;64089;51.478;5.692;2023-11-21T14:40:21;10.90;99.90
42833;DHT22;64089;51.478;5.692;2023-11-21T14:42:50;10.90;99.90
42833;DHT22;64089;51.478;5.692;2023-11-21T14:45:19;10.90;99.90
42833;DHT22;64089;51.478;5.692;2023-11-21T14:47:46;10.90;99.90
42833;DHT22;64089;51.478;5.692;2023-11-21T14:50:21;10.90;99.90
42833;DHT22;64089;51.478;5.692;2023-11-21T14:53:15;11.00;99.90
42833;DHT22;64089;51.478;5.692;2023-11-21T14:55:42;11.00;99.90
42833;DHT22;64089;51.478;5.692;2023-11-21T14:58:17;11.00;99.90
42833;DHT22;64089;51.478;5.692;2023-11-21T15:00:55;11.00;99.90
42833;DHT22;64089;51.478;5.692;2023-11-21T15:03:28;10.90;99.90
42833;DHT22;64089;51.478;5.692;2023-11-21T15:06:03;10.80;99.90
42833;DHT22;64089;51.478;5.692;2023-11-21T15:08:49;10.70;99.90
42833;DHT22;64089;51.478;5.692;2023-11-21T15:11:20;10.60;99.90
42833;DHT22;64089;51.478;5.692;2023-11-21T15:13:50;10.60;99.90
42833;DHT22;64089;51.478;5.692;2023-11-21T15:16:18;10.60;99.90
42833;DHT22;64089;51.478;5.692;2023-11-21T15:18:44;10.50;99.90
42833;DHT22;64089;51.478;5.692;2023-11-21T15:21:09;10.50;99.90
42833;DHT22;64089;51.478;5.692;2023-11-21T15:23:37;10.50;99.90
42833;DHT22;64089;51.478;5.692;2023-11-21T15:26:04;10.50;99.90
42833;DHT22;64089;51.478;5.692;2023-11-21T15:28:30;10.40;99.90
42833;DHT22;64089;51.478;5.692;2023-11-21T15:30:57;10.40;99.90
42833;DHT22;64089;51.478;5.692;2023-11-21T15:33:23;10.40;99.90
42833;DHT22;64089;51.478;5.692;2023-11-21T15:35:49;10.40;99.90
42833;DHT22;64089;51.478;5.692;2023-11-21T15:38:15;10.40;99.90
42833;DHT22;64089;51.478;5.692;2023-11-21T15:40:42;10.40;99.90
42833;DHT22;64089;51.478;5.692;2023-11-21T15:43:08;10.40;99.90
42833;DHT22;64089;51.478;5.692;2023-11-21T15:45:34;10.40;99.90
42833;DHT22;64089;51.478;5.692;2023-11-21T15:47:59;10.30;99.90
42833;DHT22;64089;51.478;5.692;2023-11-21T15:50:26;10.30;99.90
42833;DHT22;64089;51.478;5.692;2023-11-21T15:52:52;10.30;99.90
42833;DHT22;64089;51.478;5.692;2023-11-21T15:55:18;10.30;99.90